Time;durP1;ratioP1;P1;durP2;ratioP2;P2;SDS_P1;SDS_P2;PMS_P1;PMS_P2;Temp;Humidity;BMP_temperature;BMP_pressure;BME280_temperature;BME280_humidity;BME280_pressure;Samples;Min_cycle;Max_cycle;Signal;HPM_P1;HPM_P2
2022/05/01 00:00:45;;;;;;;7.18;5.13;;;19.30;1.00;;;;;;5051218;28;20500;-52
2022/05/01 00:05:55;;;;;;;6.05;4.32;;;19.40;1.00;;;;;;5051074;28;20043;-49
2022/05/01 00:08:21;;;;;;;7.03;4.10;;;19.30;1.00;;;;;;5051693;28;20480;-49
2022/05/01 00:10:47;;;;;;;4.47;4.05;;;19.30;1.00;;;;;;5051121;28;20462;-50
2022/05/01 00:13:12;;;;;;;3.88;3.35;;;19.20;1.00;;;;;;5050227;28;20052;-51
2022/05/01 00:15:38;;;;;;;4.18;2.75;;;19.20;1.00;;;;;;5051398;28;20037;-48
2022/05/01 00:18:03;;;;;;;3.05;2.75;;;19.10;1.00;;;;;;5051279;28;20411;-49
2022/05/01 00:20:29;;;;;;;3.45;2.90;;;19.00;1.00;;;;;;5051146;28;20040;-51
2022/05/01 00:22:55;;;;;;;3.88;2.80;;;19.10;1.00;;;;;;5052063;28;20036;-51
2022/05/01 00:25:20;;;;;;;3.90;3.10;;;19.00;1.00;;;;;;5051097;28;20087;-52
2022/05/01 00:27:46;;;;;;;4.18;2.88;;;19.00;1.00;;;;;;5051942;28;20119;-52
2022/05/01 00:30:12;;;;;;;2.97;2.75;;;19.00;1.00;;;;;;5050005;28;20471;-49
2022/05/01 00:38:07;;;;;;;4.25;3.17;;;19.00;1.00;;;;;;5031816;28;20041;-50
2022/05/01 00:40:33;;;;;;;3.53;3.08;;;18.90;1.00;;;;;;5050916;28;20025;-53
2022/05/01 00:43:05;;;;;;;4.10;3.80;;;18.90;1.00;;;;;;5050755;28;20131;-53
2022/05/01 00:45:31;;;;;;;6.47;3.35;;;19.00;1.00;;;;;;5051195;28;20045;-50
2022/05/01 00:47:57;;;;;;;5.05;3.10;;;18.90;1.00;;;;;;5051550;28;20053;-53
2022/05/01 00:50:24;;;;;;;4.10;3.45;;;18.90;1.00;;;;;;5051525;28;20048;-50
2022/05/01 00:52:51;;;;;;;3.20;2.95;;;18.80;1.00;;;;;;5055928;28;20059;-51
2022/05/01 00:55:17;;;;;;;4.03;3.63;;;18.80;1.00;;;;;;5055167;28;20128;-50
2022/05/01 00:57:47;;;;;;;4.55;3.42;;;18.80;1.00;;;;;;5055728;28;20108;-49
2022/05/01 01:00:16;;;;;;;4.85;3.50;;;18.80;1.00;;;;;;5054818;28;20474;-49
2022/05/01 01:02:42;;;;;;;4.57;3.47;;;18.80;1.00;;;;;;5055689;28;20024;-49
2022/05/01 01:05:08;;;;;;;4.90;3.30;;;18.90;1.00;;;;;;5053781;28;20044;-51
2022/05/01 01:07:35;;;;;;;3.33;3.03;;;18.90;1.00;;;;;;5055605;28;20033;-51
2022/05/01 01:10:01;;;;;;;5.60;3.60;;;18.90;1.00;;;;;;5044760;28;20045;-53
2022/05/01 01:15:11;;;;;;;6.85;3.95;;;18.80;1.00;;;;;;5053870;28;20124;-50
2022/05/01 01:17:42;;;;;;;3.83;3.40;;;18.80;1.00;;;;;;5055279;28;20032;-48
2022/05/01 01:20:12;;;;;;;4.47;3.60;;;18.70;1.00;;;;;;5054181;28;20082;-50
2022/05/01 01:22:39;;;;;;;3.70;3.30;;;18.70;1.00;;;;;;5055059;28;20029;-49
2022/05/01 01:25:09;;;;;;;6.38;3.70;;;18.70;1.00;;;;;;5053166;28;20166;-48
2022/05/01 01:27:35;;;;;;;4.63;3.35;;;18.60;1.00;;;;;;5070547;28;20058;-52
2022/05/01 01:32:48;;;;;;;3.95;3.47;;;18.60;1.00;;;;;;5054529;28;20481;-48
2022/05/01 01:35:15;;;;;;;2.90;2.50;;;18.50;1.00;;;;;;5053164;28;20482;-49
2022/05/01 01:37:46;;;;;;;5.60;3.10;;;18.60;1.00;;;;;;5054398;28;20024;-51
2022/05/01 01:40:28;;;;;;;3.67;2.95;;;18.50;1.00;;;;;;5052646;28;20104;-48
2022/05/01 01:42:55;;;;;;;3.47;3.00;;;18.50;1.00;;;;;;5052147;28;20047;-52
2022/05/01 01:45:22;;;;;;;4.80;2.92;;;18.50;1.00;;;;;;5053061;28;20455;-53
2022/05/01 01:47:50;;;;;;;7.03;3.45;;;18.50;1.00;;;;;;5054337;28;20021;-50
2022/05/01 01:50:20;;;;;;;4.25;3.60;;;18.40;1.00;;;;;;5053652;28;20044;-49
2022/05/01 01:52:46;;;;;;;3.83;3.45;;;18.30;1.00;;;;;;5054712;28;20033;-52
2022/05/01 01:55:17;;;;;;;3.42;3.17;;;18.30;1.00;;;;;;5053770;28;20134;-51
2022/05/01 01:57:44;;;;;;;4.50;3.10;;;18.40;1.00;;;;;;5054131;28;20044;-53
2022/05/01 02:00:11;;;;;;;5.10;3.67;;;18.40;1.00;;;;;;5052578;28;20394;-53
2022/05/01 02:02:36;;;;;;;5.10;3.50;;;18.40;1.00;;;;;;5053328;28;20466;-52
2022/05/01 02:05:03;;;;;;;4.53;3.15;;;18.40;1.00;;;;;;5062433;28;20116;-51
2022/05/01 02:07:30;;;;;;;5.88;3.78;;;18.30;1.00;;;;;;5069507;28;20025;-50
2022/05/01 02:09:57;;;;;;;3.55;3.28;;;18.30;1.00;;;;;;5053554;28;20453;-51
2022/05/01 02:12:23;;;;;;;4.10;3.65;;;18.30;1.00;;;;;;5054118;28;20025;-50
2022/05/01 02:14:48;;;;;;;6.18;3.78;;;18.40;1.00;;;;;;5053684;28;20395;-49
2022/05/01 02:17:15;;;;;;;3.95;3.42;;;18.40;1.00;;;;;;5054129;28;20029;-48
2022/05/01 02:19:41;;;;;;;6.13;3.30;;;18.40;1.00;;;;;;5052919;28;20032;-52
2022/05/01 02:22:07;;;;;;;4.68;3.38;;;18.40;1.00;;;;;;5053754;28;20099;-51
2022/05/01 02:24:33;;;;;;;5.35;3.75;;;18.40;1.00;;;;;;5053268;28;20029;-48
2022/05/01 02:26:59;;;;;;;5.90;3.50;;;18.40;1.00;;;;;;5054166;28;20024;-48
2022/05/01 02:29:26;;;;;;;4.13;3.63;;;18.40;1.00;;;;;;5052944;28;20037;-52
2022/05/01 02:31:55;;;;;;;6.95;4.28;;;18.40;1.00;;;;;;5053911;28;20077;-51
2022/05/01 02:34:22;;;;;;;4.60;4.18;;;18.40;1.00;;;;;;5052944;28;20025;-51
2022/05/01 02:36:49;;;;;;;4.13;3.83;;;18.40;1.00;;;;;;5052698;28;20104;-49
2022/05/01 02:39:14;;;;;;;7.00;5.25;;;18.40;1.00;;;;;;5043155;28;20037;-49
2022/05/01 02:41:40;;;;;;;7.07;4.30;;;18.20;1.00;;;;;;5052281;28;20368;-49
2022/05/01 02:44:06;;;;;;;4.57;4.18;;;18.20;1.00;;;;;;5053134;28;20094;-48
2022/05/01 02:46:32;;;;;;;5.13;4.47;;;18.30;1.00;;;;;;5053380;28;20116;-47
2022/05/01 02:48:58;;;;;;;7.43;4.75;;;18.30;1.00;;;;;;5052797;28;20100;-47
2022/05/01 02:51:24;;;;;;;5.60;5.03;;;18.20;1.00;;;;;;5053472;28;20041;-47
2022/05/01 02:53:50;;;;;;;4.53;4.13;;;18.30;1.00;;;;;;5048173;28;20084;-50
2022/05/01 02:56:16;;;;;;;7.28;4.72;;;18.30;1.00;;;;;;5042837;28;20029;-50
2022/05/01 02:58:42;;;;;;;6.30;5.40;;;18.20;1.00;;;;;;5052951;28;20068;-49
2022/05/01 03:01:08;;;;;;;6.07;5.47;;;18.20;1.00;;;;;;5053280;28;20521;-50
2022/05/01 03:03:33;;;;;;;6.13;5.50;;;18.30;1.00;;;;;;5052480;28;20048;-53
2022/05/01 03:06:00;;;;;;;5.82;5.32;;;18.20;1.00;;;;;;5053444;28;20032;-49
2022/05/01 03:08:27;;;;;;;6.47;5.40;;;18.20;1.00;;;;;;5051763;28;20021;-49
2022/05/01 03:10:53;;;;;;;7.28;5.18;;;18.20;1.00;;;;;;5051754;28;20416;-54
2022/05/01 03:13:19;;;;;;;7.20;5.25;;;18.20;1.00;;;;;;5051851;28;20025;-49
2022/05/01 03:15:44;;;;;;;9.00;5.05;;;18.10;1.00;;;;;;5033317;28;20049;-49
2022/05/01 03:23:39;;;;;;;5.93;5.17;;;17.80;1.00;;;;;;5051953;28;20574;-53
2022/05/01 03:26:04;;;;;;;6.55;5.15;;;17.90;1.00;;;;;;5051202;28;20120;-51
2022/05/01 03:28:30;;;;;;;6.80;5.25;;;18.00;1.00;;;;;;5051909;28;20451;-53
2022/05/01 03:30:59;;;;;;;7.20;5.57;;;17.90;1.00;;;;;;5052392;28;20076;-54
2022/05/01 03:33:26;;;;;;;6.60;4.32;;;17.90;1.00;;;;;;5052196;28;20021;-51
2022/05/01 03:35:53;;;;;;;5.30;4.80;;;17.90;1.00;;;;;;5040642;28;20032;-52
2022/05/01 03:38:20;;;;;;;5.00;4.50;;;17.90;1.00;;;;;;5052452;28;20096;-52
2022/05/01 03:40:47;;;;;;;5.55;4.75;;;17.90;1.00;;;;;;5052001;28;20029;-50
2022/05/01 03:43:16;;;;;;;5.15;4.38;;;18.00;1.00;;;;;;5051746;28;20128;-52
2022/05/01 03:45:42;;;;;;;5.22;4.72;;;17.90;1.00;;;;;;5051757;28;20036;-51
2022/05/01 03:48:08;;;;;;;4.82;4.43;;;17.70;1.00;;;;;;5052553;28;20371;-50
2022/05/01 03:50:34;;;;;;;5.00;4.60;;;17.80;1.00;;;;;;5051921;28;20040;-51
2022/05/01 03:53:02;;;;;;;4.78;4.28;;;17.80;1.00;;;;;;5052744;28;20375;-49
2022/05/01 03:55:28;;;;;;;6.22;5.00;;;17.70;1.00;;;;;;5051676;28;20077;-52
2022/05/01 03:57:53;;;;;;;6.18;5.03;;;17.70;1.00;;;;;;5051570;28;20101;-50
2022/05/01 04:00:19;;;;;;;5.60;4.95;;;17.70;1.00;;;;;;5051452;28;20394;-52
2022/05/01 04:02:46;;;;;;;5.70;5.20;;;17.70;1.00;;;;;;5048689;28;20207;-51
2022/05/01 04:05:13;;;;;;;6.00;5.10;;;17.60;1.00;;;;;;5046708;28;20033;-50
2022/05/01 04:07:41;;;;;;;5.55;4.65;;;17.70;1.00;;;;;;5049699;28;20033;-50
2022/05/01 04:10:08;;;;;;;5.93;5.35;;;17.60;1.00;;;;;;5050641;28;20044;-50
2022/05/01 04:12:38;;;;;;;6.03;5.10;;;17.60;1.00;;;;;;5050160;28;20025;-50
2022/05/01 04:15:08;;;;;;;5.32;4.85;;;17.40;1.00;;;;;;5050515;28;20087;-49
2022/05/01 04:17:41;;;;;;;5.40;4.82;;;17.50;1.00;;;;;;5049912;28;20025;-50
2022/05/01 04:20:15;;;;;;;5.18;4.68;;;17.50;1.00;;;;;;5050261;28;20025;-52
2022/05/01 04:22:42;;;;;;;;;;;17.50;1.00;;;;;;5051473;28;20056;-53
2022/05/01 04:25:14;;;;;;;7.22;5.70;;;17.50;1.00;;;;;;5050805;28;20267;-48
2022/05/01 04:27:40;;;;;;;5.75;5.18;;;17.30;1.00;;;;;;5052054;28;20391;-50
2022/05/01 04:30:06;;;;;;;9.52;5.85;;;17.40;1.00;;;;;;5050801;28;20033;-51
2022/05/01 04:32:32;;;;;;;7.15;5.47;;;17.30;1.00;;;;;;5051863;28;20082;-51
2022/05/01 04:34:57;;;;;;;6.38;5.28;;;17.40;1.00;;;;;;5050000;28;20375;-52
2022/05/01 04:37:23;;;;;;;6.00;5.50;;;17.40;1.00;;;;;;5051807;28;20029;-50
2022/05/01 04:39:49;;;;;;;7.05;5.50;;;17.20;1.00;;;;;;5066394;28;20033;-49
2022/05/01 04:42:15;;;;;;;6.20;5.57;;;17.20;1.00;;;;;;5051743;28;20053;-49
2022/05/01 04:44:43;;;;;;;5.75;5.25;;;17.40;1.00;;;;;;5042481;28;20467;-50
2022/05/01 04:47:08;;;;;;;6.70;6.07;;;17.30;1.00;;;;;;5031716;28;20021;-50
2022/05/01 04:49:35;;;;;;;5.28;4.78;;;17.20;1.00;;;;;;5038206;28;20041;-50
2022/05/01 04:52:01;;;;;;;5.40;4.65;;;17.30;1.00;;;;;;5051709;28;20040;-49
2022/05/01 04:54:27;;;;;;;5.32;4.50;;;17.40;1.00;;;;;;5050836;28;20037;-52
2022/05/01 04:57:05;;;;;;;5.10;4.70;;;17.30;1.00;;;;;;5051987;28;20035;-49
2022/05/01 04:59:30;;;;;;;5.60;5.10;;;17.30;1.00;;;;;;5050783;28;20025;-50
2022/05/01 05:01:56;;;;;;;5.60;5.10;;;17.30;1.00;;;;;;5050587;28;20033;-48
2022/05/01 05:04:21;;;;;;;5.75;5.20;;;17.30;1.00;;;;;;5049322;28;20029;-50
2022/05/01 05:06:52;;;;;;;5.35;4.85;;;17.30;1.00;;;;;;5051193;28;20403;-49
2022/05/01 05:12:05;;;;;;;5.88;5.22;;;17.10;1.00;;;;;;5051428;28;20055;-48
2022/05/01 05:14:30;;;;;;;6.43;5.30;;;17.20;1.00;;;;;;5049459;28;20048;-48
2022/05/01 05:16:57;;;;;;;6.25;5.65;;;17.20;1.00;;;;;;5050165;28;20478;-48
2022/05/01 05:19:23;;;;;;;5.60;5.15;;;17.20;1.00;;;;;;5050585;28;20429;-49
2022/05/01 05:21:49;;;;;;;5.82;5.32;;;17.00;1.00;;;;;;5066873;28;20025;-51
2022/05/01 05:24:14;;;;;;;5.80;5.13;;;17.10;1.00;;;;;;5050389;28;20124;-49
2022/05/01 05:26:40;;;;;;;7.63;5.53;;;17.10;1.00;;;;;;5051062;28;20032;-53
2022/05/01 05:29:05;;;;;;;5.75;5.20;;;17.10;1.00;;;;;;5050522;28;20028;-49
2022/05/01 05:31:31;;;;;;;6.10;5.05;;;17.20;1.00;;;;;;5050332;28;20094;-50
2022/05/01 05:33:57;;;;;;;8.70;5.03;;;17.20;1.00;;;;;;5031353;28;20383;-50
2022/05/01 05:36:23;;;;;;;5.10;4.60;;;17.20;1.00;;;;;;5052299;28;20037;-52
2022/05/01 05:38:48;;;;;;;5.70;5.07;;;17.10;1.00;;;;;;5055431;28;20223;-52
2022/05/01 05:41:14;;;;;;;4.80;4.32;;;17.20;1.00;;;;;;5054341;28;20037;-48
2022/05/01 05:43:39;;;;;;;4.40;4.07;;;17.20;1.00;;;;;;5054929;28;20414;-51
2022/05/01 05:46:05;;;;;;;5.10;4.70;;;17.20;1.00;;;;;;5053999;28;20032;-48
2022/05/01 05:48:31;;;;;;;5.70;4.68;;;17.10;1.00;;;;;;5054665;28;20033;-49
2022/05/01 05:50:56;;;;;;;4.90;4.35;;;17.20;1.00;;;;;;5053758;28;20134;-48
2022/05/01 05:53:22;;;;;;;5.05;4.57;;;17.20;1.00;;;;;;5054928;28;20025;-53
2022/05/01 05:55:48;;;;;;;6.45;4.90;;;17.20;1.00;;;;;;5053390;28;20028;-48
2022/05/01 05:58:15;;;;;;;5.10;4.68;;;17.20;1.00;;;;;;5054650;28;20048;-48
2022/05/01 06:00:41;;;;;;;4.68;4.22;;;17.10;1.00;;;;;;5053575;28;20036;-52
2022/05/01 06:03:06;;;;;;;5.28;4.78;;;17.20;1.00;;;;;;5052667;28;20032;-52
2022/05/01 06:05:32;;;;;;;4.75;4.35;;;17.20;1.00;;;;;;5053578;28;20371;-51
2022/05/01 06:07:57;;;;;;;5.88;5.38;;;17.10;1.00;;;;;;5054481;28;20390;-49
2022/05/01 06:10:23;;;;;;;5.32;4.85;;;17.20;1.00;;;;;;5053233;28;20037;-52
2022/05/01 06:12:49;;;;;;;5.93;4.65;;;17.10;1.00;;;;;;5069525;28;20063;-49
2022/05/01 06:15:14;;;;;;;5.70;4.90;;;17.00;1.00;;;;;;5053599;28;20033;-53
2022/05/01 06:17:40;;;;;;;7.82;5.53;;;17.10;1.00;;;;;;5053656;28;20048;-50
2022/05/01 06:20:07;;;;;;;8.43;5.45;;;17.20;1.00;;;;;;5053254;28;20078;-50
2022/05/01 06:22:32;;;;;;;6.20;5.60;;;17.10;1.00;;;;;;5053846;28;20413;-49
2022/05/01 06:24:59;;;;;;;5.43;4.95;;;17.20;1.00;;;;;;5052710;28;20074;-49
2022/05/01 06:27:25;;;;;;;5.68;4.80;;;17.10;1.00;;;;;;5053442;28;20044;-49
2022/05/01 06:29:50;;;;;;;5.45;4.95;;;17.00;1.00;;;;;;5052200;28;20033;-50
2022/05/01 06:32:17;;;;;;;4.45;4.05;;;17.10;1.00;;;;;;5053167;28;20021;-49
2022/05/01 06:34:44;;;;;;;5.32;4.70;;;17.20;1.00;;;;;;5052012;28;20035;-50
2022/05/01 06:37:10;;;;;;;5.38;4.85;;;17.10;1.00;;;;;;5054111;28;20029;-50
2022/05/01 06:39:35;;;;;;;4.88;4.47;;;17.20;1.00;;;;;;5052947;28;20028;-48
2022/05/01 06:42:01;;;;;;;5.15;4.65;;;17.10;1.00;;;;;;5053529;28;20039;-51
2022/05/01 06:44:27;;;;;;;4.95;4.28;;;17.20;1.00;;;;;;5053335;28;20112;-48
2022/05/01 06:46:53;;;;;;;6.78;4.90;;;17.30;1.00;;;;;;5052890;28;20055;-50
2022/05/01 06:49:18;;;;;;;4.60;4.20;;;17.30;1.00;;;;;;5051632;28;20029;-51
2022/05/01 06:51:45;;;;;;;5.68;4.38;;;17.20;1.00;;;;;;5052804;28;20032;-50
2022/05/01 06:54:10;;;;;;;4.30;3.92;;;17.30;1.00;;;;;;5053597;28;20021;-51
2022/05/01 06:56:36;;;;;;;5.80;4.68;;;17.30;1.00;;;;;;5052530;28;20079;-48
2022/05/01 06:59:02;;;;;;;5.78;5.20;;;17.40;1.00;;;;;;5052917;28;20033;-53
2022/05/01 07:01:40;;;;;;;5.85;5.07;;;17.40;1.00;;;;;;5052520;28;20029;-54
2022/05/01 07:04:06;;;;;;;5.38;4.88;;;17.40;1.00;;;;;;5053538;28;20075;-53
2022/05/01 07:06:31;;;;;;;4.85;4.45;;;17.40;1.00;;;;;;5051388;28;20029;-54
2022/05/01 07:08:57;;;;;;;6.22;5.30;;;17.40;1.00;;;;;;5053463;28;20029;-51
2022/05/01 07:11:22;;;;;;;5.50;4.78;;;17.40;1.00;;;;;;5052277;28;20040;-50
2022/05/01 07:13:48;;;;;;;5.03;4.40;;;17.40;1.00;;;;;;5052279;28;20028;-52
2022/05/01 07:16:14;;;;;;;4.88;4.47;;;17.30;1.00;;;;;;5052168;28;20128;-53
2022/05/01 07:18:39;;;;;;;4.57;4.18;;;17.40;1.00;;;;;;5053172;28;20021;-53
2022/05/01 07:21:05;;;;;;;5.15;4.65;;;17.40;1.00;;;;;;5052287;28;20064;-52
2022/05/01 07:23:31;;;;;;;6.72;5.28;;;17.50;1.00;;;;;;5053180;28;20104;-53
2022/05/01 07:25:57;;;;;;;4.78;4.22;;;17.50;1.00;;;;;;5038870;28;20495;-53
2022/05/01 07:28:22;;;;;;;4.75;3.78;;;17.60;1.00;;;;;;5038364;28;20037;-52
2022/05/01 07:30:48;;;;;;;4.45;4.05;;;17.60;1.00;;;;;;5051937;28;20072;-52
2022/05/01 07:33:13;;;;;;;4.50;4.10;;;17.70;1.00;;;;;;5052925;28;20493;-53
2022/05/01 07:35:39;;;;;;;4.60;4.15;;;17.70;1.00;;;;;;5051578;28;20486;-49
2022/05/01 07:38:05;;;;;;;4.32;4.03;;;17.70;1.00;;;;;;5052599;28;20391;-49
2022/05/01 07:40:30;;;;;;;4.68;3.95;;;17.80;1.00;;;;;;5050620;28;20033;-49
2022/05/01 07:42:56;;;;;;;5.53;4.10;;;17.80;1.00;;;;;;5052570;28;20084;-51
2022/05/01 07:45:22;;;;;;;5.20;4.70;;;17.90;1.00;;;;;;5051820;28;20032;-51
2022/05/01 07:47:48;;;;;;;5.13;4.30;;;17.90;1.00;;;;;;5050856;28;20549;-47
2022/05/01 07:50:14;;;;;;;4.35;3.95;;;17.90;1.00;;;;;;5051483;28;20029;-53
2022/05/01 07:52:40;;;;;;;5.10;4.30;;;18.00;1.00;;;;;;5052621;28;20386;-51
2022/05/01 07:55:06;;;;;;;4.70;4.30;;;18.00;1.00;;;;;;5051559;28;20044;-54
2022/05/01 07:57:32;;;;;;;4.65;4.05;;;18.00;1.00;;;;;;5050312;28;20035;-50
2022/05/01 07:59:58;;;;;;;4.90;4.50;;;18.00;1.00;;;;;;5049900;28;20025;-49
2022/05/01 08:02:23;;;;;;;6.63;6.13;;;18.00;1.00;;;;;;5051977;28;20142;-52
2022/05/01 08:04:49;;;;;;;6.85;6.25;;;18.10;1.00;;;;;;5051357;28;20024;-51
2022/05/01 08:07:17;;;;;;;5.03;4.53;;;18.10;1.00;;;;;;5052211;28;20037;-52
2022/05/01 08:09:43;;;;;;;5.20;4.72;;;18.10;1.00;;;;;;5049412;28;20036;-50
2022/05/01 08:12:09;;;;;;;4.53;3.85;;;18.10;1.00;;;;;;5032223;28;20022;-51
2022/05/01 08:14:35;;;;;;;5.63;5.13;;;18.20;1.00;;;;;;5030767;28;20037;-50
2022/05/01 08:17:00;;;;;;;4.93;4.07;;;18.30;1.00;;;;;;5050644;28;20108;-49
2022/05/01 08:22:10;;;;;;;4.05;3.72;;;18.20;1.00;;;;;;5051319;28;20509;-53
2022/05/01 08:24:36;;;;;;;4.90;4.45;;;18.20;1.00;;;;;;5051102;28;20045;-53
2022/05/01 08:27:05;;;;;;;4.80;4.47;;;18.30;1.00;;;;;;5051000;28;20036;-53
2022/05/01 08:29:37;;;;;;;5.57;5.03;;;18.30;1.00;;;;;;5051899;28;20025;-51
2022/05/01 08:32:03;;;;;;;4.82;4.43;;;18.40;1.00;;;;;;5050901;28;20036;-48
2022/05/01 08:34:29;;;;;;;463.80;59.38;;;18.50;1.00;;;;;;5051935;28;20033;-52
2022/05/01 08:36:55;;;;;;;9.75;7.50;;;18.50;1.00;;;;;;5066540;28;20440;-53
2022/05/01 08:39:21;;;;;;;362.75;45.30;;;18.60;1.00;;;;;;5051988;28;20111;-56
2022/05/01 08:41:46;;;;;;;51.35;14.90;;;18.60;1.00;;;;;;5050955;28;20064;-51
2022/05/01 08:44:14;;;;;;;6.15;5.63;;;18.60;1.00;;;;;;5051904;28;20029;-50
2022/05/01 08:46:56;;;;;;;6.78;5.72;;;18.70;1.00;;;;;;5050906;28;20021;-56
2022/05/01 08:49:22;;;;;;;6.78;6.10;;;18.70;1.00;;;;;;5032230;28;20052;-60
2022/05/01 08:51:50;;;;;;;7.10;6.50;;;18.80;1.00;;;;;;5048259;28;20048;-64
2022/05/01 08:54:17;;;;;;;9.82;8.93;;;18.80;1.00;;;;;;5051787;28;20108;-65
2022/05/01 08:56:44;;;;;;;6.20;5.63;;;18.90;1.00;;;;;;5050705;28;20033;-64
2022/05/01 08:59:12;;;;;;;9.15;7.40;;;19.00;1.00;;;;;;5051953;28;20028;-65
2022/05/01 09:01:39;;;;;;;6.55;5.95;;;19.00;1.00;;;;;;5050216;28;20083;-63
2022/05/01 09:04:06;;;;;;;6.80;6.18;;;19.00;1.00;;;;;;5051586;28;20029;-62
2022/05/01 09:06:36;;;;;;;6.70;6.10;;;19.10;1.00;;;;;;5050575;28;20501;-63
2022/05/01 09:09:09;;;;;;;6.63;5.93;;;19.10;1.00;;;;;;5051745;28;20497;-63
2022/05/01 09:14:22;;;;;;;6.50;5.60;;;19.10;1.00;;;;;;5054946;28;20052;-60
2022/05/01 09:17:11;;;;;;;11.68;6.45;;;19.20;1.00;;;;;;5065855;28;20029;-58
2022/05/01 09:19:37;;;;;;;24.67;6.55;;;19.30;1.00;;;;;;5054591;28;20033;-61
2022/05/01 09:22:03;;;;;;;5.20;4.70;;;19.40;1.00;;;;;;5053259;28;20449;-58
2022/05/01 09:24:41;;;;;;;5.43;4.78;;;19.30;1.00;;;;;;5054416;28;20415;-58
2022/05/01 09:27:27;;;;;;;5.45;4.80;;;19.40;1.00;;;;;;5053786;28;20025;-59
2022/05/01 09:30:13;;;;;;;14.30;6.55;;;19.40;1.00;;;;;;5053845;28;20067;-51
2022/05/01 09:32:40;;;;;;;5.80;4.75;;;19.60;1.00;;;;;;5050023;28;20120;-49
2022/05/01 09:35:11;;;;;;;3.65;3.30;;;19.60;1.00;;;;;;5054582;28;20027;-54
2022/05/01 09:37:37;;;;;;;4.18;3.33;;;19.80;1.00;;;;;;5054664;28;20035;-58
2022/05/01 09:40:02;;;;;;;7.43;4.00;;;19.70;1.00;;;;;;5053528;28;20029;-58
2022/05/01 09:42:33;;;;;;;3.70;3.40;;;19.60;1.00;;;;;;5052426;28;20056;-57
2022/05/01 09:45:14;;;;;;;4.18;3.78;;;19.80;1.00;;;;;;5053512;28;20104;-60
2022/05/01 09:47:45;;;;;;;4.43;4.03;;;19.80;1.00;;;;;;5053350;28;20029;-59
2022/05/01 09:50:12;;;;;;;3.70;3.40;;;19.90;1.00;;;;;;5046832;28;20051;-61
2022/05/01 09:53:01;;;;;;;4.85;3.70;;;20.00;1.00;;;;;;5045425;28;20513;-58
2022/05/01 09:55:29;;;;;;;8.30;4.47;;;20.10;1.00;;;;;;5041856;28;20387;-59
2022/05/01 09:58:10;;;;;;;3.97;3.67;;;20.10;1.00;;;;;;5052466;28;20082;-59
2022/05/01 10:00:39;;;;;;;4.10;3.80;;;20.20;1.00;;;;;;5067657;28;20433;-55
2022/05/01 10:03:21;;;;;;;4.65;3.85;;;20.10;1.00;;;;;;5052181;28;20124;-53
2022/05/01 10:05:51;;;;;;;5.20;3.95;;;20.10;1.00;;;;;;5050748;28;20067;-58
2022/05/01 10:08:18;;;;;;;4.93;4.50;;;20.20;1.00;;;;;;5051891;28;20466;-59
2022/05/01 10:10:49;;;;;;;5.50;5.00;;;20.20;1.00;;;;;;5053699;28;20490;-58
2022/05/01 10:13:16;;;;;;;5.78;4.82;;;20.40;1.00;;;;;;5050951;28;20037;-58
2022/05/01 10:15:42;;;;;;;5.82;4.57;;;20.40;1.00;;;;;;5059577;28;20036;-59
2022/05/01 10:18:10;;;;;;;5.32;4.82;;;20.50;1.00;;;;;;5052748;28;20429;-60
2022/05/01 10:20:37;;;;;;;6.00;5.50;;;20.50;1.00;;;;;;5050689;28;20482;-59
2022/05/01 10:23:03;;;;;;;6.43;5.85;;;20.50;1.00;;;;;;5049915;28;20423;-58
2022/05/01 10:25:34;;;;;;;5.25;4.85;;;20.50;1.00;;;;;;5054100;28;20024;-59
2022/05/01 10:28:16;;;;;;;13.52;8.13;;;20.70;1.00;;;;;;5051202;28;20106;-58
2022/05/01 10:34:17;;;;;;;11.90;6.97;;;20.80;1.00;;;;;;5053191;28;20504;-59
2022/05/01 10:37:30;;;;;;;4.93;4.43;;;20.70;1.00;;;;;;5056208;28;20098;-59
2022/05/01 10:39:58;;;;;;;5.15;4.75;;;20.70;1.00;;;;;;5051729;28;20505;-58
2022/05/01 10:43:05;;;;;;;8.65;4.80;;;20.80;1.00;;;;;;5050042;28;20056;-58
2022/05/01 10:45:30;;;;;;;4.28;3.88;;;20.80;1.00;;;;;;5061374;28;20024;-58
2022/05/01 10:47:56;;;;;;;5.25;4.03;;;20.70;1.00;;;;;;5043538;28;20198;-58
2022/05/01 10:50:28;;;;;;;3.97;3.65;;;20.80;1.00;;;;;;5047772;28;20044;-58
2022/05/01 10:53:12;;;;;;;3.20;3.00;;;20.80;1.00;;;;;;5043992;28;20029;-58
2022/05/01 10:56:20;;;;;;;3.10;2.45;;;21.00;1.00;;;;;;5056193;28;20032;-59
2022/05/01 10:58:45;;;;;;;3.17;2.65;;;21.10;1.00;;;;;;5048767;28;20021;-59
2022/05/01 11:01:12;;;;;;;3.88;3.58;;;21.10;1.00;;;;;;5038685;28;20386;-59
2022/05/01 11:03:51;;;;;;;3.95;3.65;;;21.10;1.00;;;;;;5046006;28;20382;-59
2022/05/01 11:06:20;;;;;;;4.72;3.40;;;21.20;1.00;;;;;;5065013;28;20116;-59
2022/05/01 11:08:47;;;;;;;3.88;3.47;;;21.20;1.00;;;;;;5052753;28;20029;-59
2022/05/01 11:11:15;;;;;;;3.50;3.30;;;21.40;1.00;;;;;;5047268;28;20091;-58
2022/05/01 11:13:41;;;;;;;3.72;3.25;;;21.50;1.00;;;;;;5052631;28;20403;-58
2022/05/01 11:16:09;;;;;;;3.50;3.13;;;21.60;1.00;;;;;;5051963;28;20033;-59
2022/05/01 11:18:52;;;;;;;4.10;3.80;;;21.50;1.00;;;;;;5052270;28;20462;-58
2022/05/01 11:21:24;;;;;;;3.83;3.45;;;21.60;1.00;;;;;;5047334;28;20033;-58
2022/05/01 11:24:00;;;;;;;4.13;3.72;;;21.70;1.00;;;;;;5049622;28;20028;-58
2022/05/01 11:26:27;;;;;;;4.10;3.80;;;21.80;1.00;;;;;;5052263;28;20078;-58
2022/05/01 11:28:54;;;;;;;3.83;3.45;;;21.90;1.00;;;;;;5045816;28;20029;-58
2022/05/01 11:31:38;;;;;;;3.33;3.13;;;21.90;1.00;;;;;;5052322;28;20033;-57
2022/05/01 11:34:16;;;;;;;3.55;3.22;;;22.00;1.00;;;;;;5043625;28;20025;-58
2022/05/01 11:36:53;;;;;;;3.42;3.17;;;22.00;1.00;;;;;;5045616;28;20365;-58
2022/05/01 11:39:42;;;;;;;3.47;3.17;;;22.20;1.00;;;;;;5056243;28;20041;-59
2022/05/01 11:42:31;;;;;;;4.18;2.95;;;22.50;1.00;;;;;;5044197;28;20068;-58
2022/05/01 11:44:59;;;;;;;3.55;2.75;;;22.70;1.00;;;;;;5054058;28;20033;-59
2022/05/01 11:47:26;;;;;;;3.58;3.10;;;22.80;1.00;;;;;;5055645;28;20028;-60
2022/05/01 11:49:52;;;;;;;3.38;3.08;;;23.50;1.00;;;;;;5047542;28;20125;-60
2022/05/01 11:52:19;;;;;;;3.05;2.80;;;24.70;1.00;;;;;;5049527;28;20036;-59
2022/05/01 11:54:57;;;;;;;3.92;3.13;;;25.60;1.00;;;;;;5046124;28;20025;-59
2022/05/01 12:03:07;;;;;;;3.63;2.75;;;26.80;1.00;;;;;;5051816;28;20110;-59
2022/05/01 12:05:41;;;;;;;3.38;3.08;;;28.90;1.00;;;;;;5051281;28;20033;-59
2022/05/01 12:08:06;;;;;;;;;;;30.00;1.00;;;;;;5053030;28;20156;-59
2022/05/01 12:10:32;;;;;;;2.83;2.70;;;29.90;1.00;;;;;;5051183;28;20004;-60
2022/05/01 12:12:58;;;;;;;4.00;3.10;;;28.70;1.00;;;;;;5052257;28;20079;-59
2022/05/01 12:15:24;;;;;;;4.13;3.67;;;27.30;1.00;;;;;;5051417;28;20036;-59
2022/05/01 12:17:51;;;;;;;3.15;2.95;;;27.50;1.00;;;;;;5051669;28;20467;-59
2022/05/01 12:23:46;;;;;;;3.33;3.08;;;27.70;1.00;;;;;;5048883;28;20099;-59
2022/05/01 12:26:12;;;;;;;3.80;3.35;;;29.10;1.00;;;;;;5052242;28;20385;-59
2022/05/01 12:28:38;;;;;;;3.70;3.40;;;30.50;1.00;;;;;;5049833;28;20025;-59
2022/05/01 12:31:06;;;;;;;3.30;3.10;;;31.10;1.00;;;;;;5051910;28;20040;-59
2022/05/01 12:33:32;;;;;;;3.75;3.45;;;30.00;1.00;;;;;;5050807;28;20029;-59
2022/05/01 12:35:59;;;;;;;3.67;3.40;;;29.40;1.00;;;;;;5051920;28;20032;-59
2022/05/01 12:38:29;;;;;;;3.47;3.28;;;28.80;1.00;;;;;;5051316;28;20104;-59
2022/05/01 12:43:59;;;;;;;3.05;2.85;;;29.20;1.00;;;;;;5048474;28;20064;-59
2022/05/01 12:46:29;;;;;;;4.07;3.88;;;29.50;1.00;;;;;;5053021;28;20032;-59
2022/05/01 12:48:56;;;;;;;4.45;4.15;;;29.20;1.00;;;;;;5055183;28;20017;-59
2022/05/01 12:51:24;;;;;;;3.80;3.60;;;29.80;1.00;;;;;;5056003;28;20033;-58
2022/05/01 12:54:08;;;;;;;4.22;3.83;;;30.60;1.00;;;;;;5055203;28;20070;-59
2022/05/01 12:56:34;;;;;;;;;;;31.40;1.00;;;;;;5054742;28;20048;-58
2022/05/01 12:59:00;;;;;;;3.80;3.50;;;30.90;1.00;;;;;;5053094;28;19913;-59
2022/05/01 13:01:29;;;;;;;3.63;3.35;;;30.70;1.00;;;;;;5054003;28;20055;-59
2022/05/01 13:03:55;;;;;;;3.50;3.30;;;30.80;1.00;;;;;;5055322;28;20028;-59
2022/05/01 13:06:23;;;;;;;3.60;3.30;;;31.30;1.00;;;;;;5054838;28;20041;-59
2022/05/01 13:09:16;;;;;;;3.08;2.88;;;30.30;1.00;;;;;;5054605;28;20032;-59
2022/05/01 13:12:00;;;;;;;3.53;3.30;;;30.90;1.00;;;;;;5054045;28;20044;-59
2022/05/01 13:14:32;;;;;;;3.60;3.30;;;33.50;1.00;;;;;;5053988;28;20466;-59
2022/05/01 13:17:17;;;;;;;3.50;3.20;;;34.10;1.00;;;;;;5055377;28;20419;-59
2022/05/01 13:19:45;;;;;;;2.70;2.50;;;35.80;1.00;;;;;;5054773;28;20060;-59
2022/05/01 13:22:11;;;;;;;3.17;2.83;;;36.80;1.00;;;;;;5054958;28;20025;-59
2022/05/01 13:24:39;;;;;;;3.08;2.88;;;37.50;1.00;;;;;;5054761;28;20120;-59
2022/05/01 13:27:11;;;;;;;3.13;2.78;;;37.90;1.00;;;;;;5055200;28;20490;-59
2022/05/01 13:29:38;;;;;;;3.53;2.85;;;38.00;1.00;;;;;;5053744;28;20029;-59
2022/05/01 13:32:09;;;;;;;2.83;2.70;;;39.30;1.00;;;;;;5055163;28;20040;-58
2022/05/01 13:34:36;;;;;;;3.40;3.10;;;39.30;1.00;;;;;;5054307;28;20485;-58
2022/05/01 13:37:04;;;;;;;2.88;2.35;;;40.60;1.00;;;;;;5054306;28;20033;-58
2022/05/01 13:44:59;;;;;;;2.80;2.60;;;38.90;1.00;;;;;;5054216;28;20074;-58
2022/05/01 13:47:25;;;;;;;2.58;2.38;;;37.80;1.00;;;;;;5054828;28;20437;-59
2022/05/01 13:49:51;;;;;;;4.43;2.35;;;35.60;1.00;;;;;;5053723;28;20025;-59
2022/05/01 13:52:17;;;;;;;4.30;2.22;;;35.50;1.00;;;;;;5053344;28;20029;-59